AXM6047 WMKJ-WMKK
Flight info
| Callsign | AXM6047 |
|---|---|
| Flight time | 0h 29m |
| Altitude | 20000 |
| Route | SABKA1J SABKA A457 GUPTA GUPTA1H |
| Aircraft | A320/M-SDE3FGHIRWY/LB1 |
Departure
| Time | 2026-04-22 08:43 |
|---|---|
| Airport | Senai International Airport (WMKJ) |
Arrival
| Time | 2026-04-22 09:12 |
|---|---|
| Airport | Kuala Lumpur International Airport (WMKK) |
| Time | Latitude | Longitude | Altitude | Speed | Heading |
|---|---|---|---|---|---|
| 2026-04-22 08:27 | 1.63649 | 103.66727 | 153 ft | 0 kts | 249° |
| 2026-04-22 08:35 | 1.63654 | 103.66740 | 153 ft | 2 kts | 250° |
| 2026-04-22 08:35 | 1.63660 | 103.66755 | 153 ft | 2 kts | 251° |
| 2026-04-22 08:36 | 1.63665 | 103.66771 | 153 ft | 2 kts | 253° |
| 2026-04-22 08:36 | 1.63669 | 103.66787 | 153 ft | 2 kts | 256° |
| 2026-04-22 08:36 | 1.63673 | 103.66803 | 153 ft | 2 kts | 268° |
| 2026-04-22 08:36 | 1.63670 | 103.66819 | 153 ft | 2 kts | 330° |
| 2026-04-22 08:37 | 1.63655 | 103.66825 | 153 ft | 2 kts | 338° |
| 2026-04-22 08:37 | 1.63640 | 103.66832 | 153 ft | 2 kts | 339° |
| 2026-04-22 08:37 | 1.63635 | 103.66833 | 153 ft | 0 kts | 340° |
| 2026-04-22 08:39 | 1.63637 | 103.66833 | 153 ft | 2 kts | 340° |
| 2026-04-22 08:40 | 1.63644 | 103.66830 | 153 ft | 1 kts | 340° |
| 2026-04-22 08:40 | 1.63653 | 103.66828 | 153 ft | 4 kts | 355° |
| 2026-04-22 08:40 | 1.63677 | 103.66848 | 153 ft | 4 kts | 50° |
| 2026-04-22 08:40 | 1.63697 | 103.66899 | 153 ft | 15 kts | 69° |
| 2026-04-22 08:41 | 1.63719 | 103.66960 | 153 ft | 5 kts | 71° |
| 2026-04-22 08:41 | 1.63739 | 103.67026 | 153 ft | 14 kts | 89° |
| 2026-04-22 08:41 | 1.63704 | 103.67070 | 153 ft | 23 kts | 153° |
| 2026-04-22 08:42 | 1.63657 | 103.67077 | 153 ft | 30 kts | 172° |
| 2026-04-22 08:42 | 1.63212 | 103.67251 | 152 ft | 104 kts | 160° |
| 2026-04-22 08:42 | 1.62349 | 103.67562 | 179 ft | 154 kts | 161° |
| 2026-04-22 08:42 | 1.61267 | 103.67913 | 558 ft | 168 kts | 168° |
| 2026-04-22 08:43 | 1.60144 | 103.67707 | 1095 ft | 170 kts | 220° |
| 2026-04-22 08:43 | 1.59617 | 103.66683 | 1753 ft | 173 kts | 266° |
| 2026-04-22 08:43 | 1.59756 | 103.65440 | 2210 ft | 192 kts | 286° |
| 2026-04-22 08:43 | 1.60053 | 103.64055 | 2600 ft | 217 kts | 279° |
| 2026-04-22 08:44 | 1.60265 | 103.62495 | 3072 ft | 241 kts | 278° |
| 2026-04-22 08:44 | 1.60473 | 103.60750 | 3603 ft | 263 kts | 277° |
| 2026-04-22 08:44 | 1.60686 | 103.58899 | 4434 ft | 271 kts | 277° |
| 2026-04-22 08:44 | 1.60902 | 103.57013 | 5345 ft | 276 kts | 277° |
| 2026-04-22 08:45 | 1.61125 | 103.55098 | 6266 ft | 279 kts | 277° |
| 2026-04-22 08:45 | 1.61352 | 103.53159 | 7143 ft | 282 kts | 276° |
| 2026-04-22 08:45 | 1.61662 | 103.51219 | 8008 ft | 285 kts | 285° |
| 2026-04-22 08:45 | 1.62449 | 103.49397 | 8885 ft | 289 kts | 302° |
| 2026-04-22 08:46 | 1.63702 | 103.47850 | 9809 ft | 293 kts | 316° |
| 2026-04-22 08:46 | 1.65253 | 103.46432 | 10307 ft | 313 kts | 317° |
| 2026-04-22 08:46 | 1.66936 | 103.44907 | 10845 ft | 339 kts | 317° |
| 2026-04-22 08:46 | 1.68745 | 103.43270 | 11449 ft | 359 kts | 317° |
| 2026-04-22 08:47 | 1.70621 | 103.41568 | 12352 ft | 368 kts | 317° |
| 2026-04-22 08:47 | 1.72529 | 103.39828 | 13390 ft | 374 kts | 317° |
| 2026-04-22 08:47 | 1.74470 | 103.38060 | 14348 ft | 381 kts | 317° |
| 2026-04-22 08:47 | 1.76445 | 103.36262 | 15224 ft | 387 kts | 317° |
| 2026-04-22 08:48 | 1.78447 | 103.34442 | 15966 ft | 393 kts | 317° |
| 2026-04-22 08:48 | 1.80456 | 103.32619 | 16711 ft | 398 kts | 318° |
| 2026-04-22 08:48 | 1.82514 | 103.30748 | 17386 ft | 403 kts | 317° |
| 2026-04-22 08:48 | 1.84436 | 103.28688 | 17899 ft | 408 kts | 308° |
| 2026-04-22 08:49 | 1.85954 | 103.26275 | 18360 ft | 413 kts | 296° |
| 2026-04-22 08:49 | 1.87206 | 103.23681 | 18829 ft | 416 kts | 296° |
| 2026-04-22 08:49 | 1.88475 | 103.21072 | 19309 ft | 418 kts | 296° |
| 2026-04-22 08:49 | 1.89760 | 103.18456 | 19674 ft | 421 kts | 296° |
| 2026-04-22 08:50 | 1.91053 | 103.15828 | 19779 ft | 424 kts | 296° |
| 2026-04-22 08:50 | 1.92361 | 103.13173 | 19804 ft | 438 kts | 296° |
| 2026-04-22 08:50 | 1.93723 | 103.10402 | 19806 ft | 450 kts | 296° |
| 2026-04-22 08:50 | 1.95117 | 103.07565 | 19805 ft | 458 kts | 296° |
| 2026-04-22 08:51 | 1.96524 | 103.04699 | 19802 ft | 460 kts | 296° |
| 2026-04-22 08:51 | 1.97931 | 103.01827 | 19802 ft | 460 kts | 296° |
| 2026-04-22 08:51 | 1.99337 | 102.98952 | 19805 ft | 460 kts | 296° |
| 2026-04-22 08:51 | 2.00743 | 102.96077 | 19802 ft | 460 kts | 296° |
| 2026-04-22 08:52 | 2.02151 | 102.93199 | 19800 ft | 460 kts | 296° |
| 2026-04-22 08:52 | 2.03542 | 102.90361 | 19805 ft | 460 kts | 296° |
| 2026-04-22 08:52 | 2.04957 | 102.87483 | 19801 ft | 460 kts | 296° |
| 2026-04-22 08:52 | 2.06363 | 102.84613 | 19802 ft | 460 kts | 296° |
| 2026-04-22 08:53 | 2.07765 | 102.81739 | 19799 ft | 460 kts | 295° |
| 2026-04-22 08:53 | 2.09165 | 102.78863 | 19800 ft | 460 kts | 296° |
| 2026-04-22 08:53 | 2.10568 | 102.75990 | 19800 ft | 460 kts | 296° |
| 2026-04-22 08:53 | 2.11970 | 102.73117 | 19802 ft | 460 kts | 296° |
| 2026-04-22 08:54 | 2.13354 | 102.70282 | 19804 ft | 460 kts | 296° |
| 2026-04-22 08:54 | 2.14755 | 102.67412 | 19802 ft | 460 kts | 295° |
| 2026-04-22 08:54 | 2.15950 | 102.64448 | 19802 ft | 459 kts | 287° |
| 2026-04-22 08:54 | 2.16645 | 102.61336 | 19803 ft | 459 kts | 277° |
| 2026-04-22 08:55 | 2.17005 | 102.58167 | 19801 ft | 459 kts | 276° |
| 2026-04-22 08:55 | 2.17362 | 102.55003 | 19802 ft | 459 kts | 276° |
| 2026-04-22 08:55 | 2.17728 | 102.51834 | 19799 ft | 459 kts | 276° |
| 2026-04-22 08:55 | 2.18097 | 102.48710 | 19801 ft | 459 kts | 276° |
| 2026-04-22 08:56 | 2.18471 | 102.45545 | 19802 ft | 459 kts | 276° |
| 2026-04-22 08:56 | 2.18838 | 102.42377 | 19801 ft | 459 kts | 276° |
| 2026-04-22 08:56 | 2.19200 | 102.39203 | 19779 ft | 458 kts | 276° |
| 2026-04-22 08:56 | 2.19556 | 102.36050 | 19549 ft | 455 kts | 276° |
| 2026-04-22 08:57 | 2.19908 | 102.32917 | 19244 ft | 453 kts | 276° |
| 2026-04-22 08:57 | 2.20263 | 102.29794 | 18912 ft | 450 kts | 276° |
| 2026-04-22 08:57 | 2.20620 | 102.26692 | 18574 ft | 448 kts | 277° |
| 2026-04-22 08:57 | 2.20971 | 102.23654 | 18246 ft | 445 kts | 277° |
| 2026-04-22 08:58 | 2.21325 | 102.20587 | 17894 ft | 443 kts | 277° |
| 2026-04-22 08:58 | 2.21675 | 102.17540 | 17512 ft | 440 kts | 277° |
| 2026-04-22 08:58 | 2.22023 | 102.14517 | 17130 ft | 437 kts | 277° |
| 2026-04-22 08:58 | 2.22370 | 102.11516 | 16762 ft | 433 kts | 277° |
| 2026-04-22 08:59 | 2.22714 | 102.08529 | 16390 ft | 431 kts | 277° |
| 2026-04-22 08:59 | 2.23051 | 102.05562 | 16025 ft | 428 kts | 277° |
| 2026-04-22 08:59 | 2.23386 | 102.02615 | 15669 ft | 425 kts | 277° |
| 2026-04-22 08:59 | 2.23718 | 101.99680 | 15314 ft | 423 kts | 276° |
| 2026-04-22 09:00 | 2.24043 | 101.96807 | 14963 ft | 421 kts | 276° |
| 2026-04-22 09:00 | 2.24373 | 101.93912 | 14620 ft | 418 kts | 277° |
| 2026-04-22 09:00 | 2.24703 | 101.91044 | 14272 ft | 410 kts | 277° |
| 2026-04-22 09:00 | 2.25023 | 101.88244 | 13936 ft | 399 kts | 277° |
| 2026-04-22 09:01 | 2.25334 | 101.85523 | 13598 ft | 389 kts | 277° |
| 2026-04-22 09:01 | 2.25639 | 101.82868 | 13223 ft | 380 kts | 277° |
| 2026-04-22 09:01 | 2.25937 | 101.80276 | 12852 ft | 371 kts | 277° |
| 2026-04-22 09:01 | 2.26222 | 101.77775 | 12467 ft | 363 kts | 277° |
| 2026-04-22 09:02 | 2.26504 | 101.75296 | 12110 ft | 355 kts | 277° |
| 2026-04-22 09:02 | 2.26781 | 101.72868 | 11751 ft | 348 kts | 277° |
| 2026-04-22 09:02 | 2.27054 | 101.70485 | 11394 ft | 341 kts | 277° |
| 2026-04-22 09:02 | 2.27322 | 101.68153 | 11039 ft | 335 kts | 277° |
| 2026-04-22 09:03 | 2.27668 | 101.65876 | 10689 ft | 329 kts | 286° |
| 2026-04-22 09:03 | 2.28610 | 101.63859 | 10357 ft | 323 kts | 306° |
| 2026-04-22 09:03 | 2.30116 | 101.62225 | 10011 ft | 318 kts | 316° |
| 2026-04-22 09:03 | 2.31699 | 101.60700 | 9670 ft | 313 kts | 316° |
| 2026-04-22 09:04 | 2.33260 | 101.59196 | 9286 ft | 309 kts | 316° |
| 2026-04-22 09:04 | 2.34853 | 101.57774 | 8912 ft | 305 kts | 327° |
| 2026-04-22 09:04 | 2.36835 | 101.57089 | 8418 ft | 306 kts | 356° |
| 2026-04-22 09:04 | 2.38916 | 101.57498 | 7779 ft | 312 kts | 27° |
| 2026-04-22 09:05 | 2.40556 | 101.58921 | 7153 ft | 317 kts | 52° |
| 2026-04-22 09:05 | 2.41763 | 101.60777 | 6549 ft | 321 kts | 59° |
| 2026-04-22 09:05 | 2.42794 | 101.62734 | 5937 ft | 323 kts | 63° |
| 2026-04-22 09:05 | 2.43783 | 101.64747 | 5391 ft | 321 kts | 63° |
| 2026-04-22 09:06 | 2.44770 | 101.66737 | 4848 ft | 319 kts | 63° |
| 2026-04-22 09:06 | 2.45767 | 101.68659 | 4341 ft | 302 kts | 62° |
| 2026-04-22 09:06 | 2.46737 | 101.70455 | 3910 ft | 285 kts | 61° |
| 2026-04-22 09:06 | 2.47659 | 101.72119 | 3705 ft | 261 kts | 61° |
| 2026-04-22 09:07 | 2.48522 | 101.73654 | 3338 ft | 250 kts | 60° |
| 2026-04-22 09:07 | 2.49376 | 101.75162 | 2921 ft | 250 kts | 61° |
| 2026-04-22 09:07 | 2.50224 | 101.76659 | 2683 ft | 243 kts | 61° |
| 2026-04-22 09:07 | 2.51165 | 101.77982 | 2577 ft | 230 kts | 45° |
| 2026-04-22 09:08 | 2.52408 | 101.78907 | 2548 ft | 220 kts | 28° |
| 2026-04-22 09:08 | 2.53848 | 101.79408 | 2515 ft | 219 kts | 10° |
| 2026-04-22 09:08 | 2.55367 | 101.79460 | 2504 ft | 221 kts | 353° |
| 2026-04-22 09:08 | 2.56849 | 101.79050 | 2486 ft | 223 kts | 335° |
| 2026-04-22 09:09 | 2.58174 | 101.78242 | 2488 ft | 224 kts | 327° |
| 2026-04-22 09:09 | 2.59469 | 101.77372 | 2490 ft | 224 kts | 327° |
| 2026-04-22 09:09 | 2.60782 | 101.76493 | 2293 ft | 231 kts | 327° |
| 2026-04-22 09:09 | 2.62108 | 101.75603 | 2015 ft | 230 kts | 326° |
| 2026-04-22 09:10 | 2.63422 | 101.74723 | 1721 ft | 230 kts | 325° |
| 2026-04-22 09:10 | 2.64745 | 101.73836 | 1423 ft | 228 kts | 325° |
| 2026-04-22 09:10 | 2.66063 | 101.72952 | 1133 ft | 227 kts | 325° |
| 2026-04-22 09:10 | 2.67367 | 101.72078 | 869 ft | 225 kts | 325° |
| 2026-04-22 09:11 | 2.68651 | 101.71217 | 614 ft | 218 kts | 326° |
| 2026-04-22 09:11 | 2.69831 | 101.70426 | 330 ft | 189 kts | 326° |
| 2026-04-22 09:11 | 2.70856 | 101.69745 | 111 ft | 164 kts | 326° |
| 2026-04-22 09:11 | 2.71723 | 101.69160 | 44 ft | 136 kts | 326° |
| 2026-04-22 09:12 | 2.71865 | 101.69065 | 41 ft | 129 kts | 326° |
| 2026-04-22 09:12 | 2.72347 | 101.68734 | 37 ft | 42 kts | 326° |
| 2026-04-22 09:12 | 2.72463 | 101.68672 | 35 ft | 14 kts | 337° |
| 2026-04-22 09:12 | 2.72548 | 101.68639 | 37 ft | 12 kts | 349° |
| 2026-04-22 09:13 | 2.72619 | 101.68627 | 39 ft | 9 kts | 354° |
| 2026-04-22 09:13 | 2.72676 | 101.68621 | 39 ft | 8 kts | 354° |
| 2026-04-22 09:13 | 2.72730 | 101.68616 | 38 ft | 8 kts | 353° |
| 2026-04-22 09:13 | 2.72785 | 101.68609 | 37 ft | 8 kts | 353° |
| 2026-04-22 09:14 | 2.72851 | 101.68600 | 37 ft | 15 kts | 349° |
| 2026-04-22 09:14 | 2.72977 | 101.68523 | 39 ft | 24 kts | 324° |
| 2026-04-22 09:14 | 2.73044 | 101.68475 | 39 ft | 25 kts | 326° |
| 2026-04-22 09:14 | 2.73196 | 101.68375 | 37 ft | 26 kts | 328° |
| 2026-04-22 09:15 | 2.73282 | 101.68361 | 38 ft | 5 kts | 40° |
| 2026-04-22 09:15 | 2.73283 | 101.68363 | 38 ft | 0 kts | 45° |
| 2026-04-22 09:17 | 2.73307 | 101.68390 | 42 ft | 12 kts | 48° |
| 2026-04-22 09:17 | 2.73371 | 101.68390 | 43 ft | 8 kts | 326° |
| 2026-04-22 09:17 | 2.73421 | 101.68358 | 43 ft | 9 kts | 327° |
| 2026-04-22 09:17 | 2.73476 | 101.68322 | 42 ft | 11 kts | 325° |
| 2026-04-22 09:18 | 2.73544 | 101.68275 | 43 ft | 13 kts | 326° |
| 2026-04-22 09:18 | 2.73614 | 101.68226 | 43 ft | 12 kts | 325° |
| 2026-04-22 09:18 | 2.73678 | 101.68200 | 44 ft | 8 kts | 27° |
| 2026-04-22 09:18 | 2.73705 | 101.68228 | 46 ft | 3 kts | 53° |
| 2026-04-22 09:19 | 2.73728 | 101.68259 | 48 ft | 14 kts | 54° |
| 2026-04-22 09:19 | 2.73806 | 101.68374 | 49 ft | 23 kts | 56° |
| 2026-04-22 09:19 | 2.73899 | 101.68508 | 49 ft | 24 kts | 55° |
| 2026-04-22 09:19 | 2.73988 | 101.68641 | 49 ft | 12 kts | 74° |
| 2026-04-22 09:20 | 2.73948 | 101.68686 | 47 ft | 8 kts | 146° |
| 2026-04-22 09:20 | 2.73919 | 101.68705 | 49 ft | 0 kts | 144° |
| 2026-04-22 09:20 | 2.73928 | 101.68699 | 49 ft | 0 kts | 144° |
| 2026-04-22 09:20 | 2.73923 | 101.68703 | 49 ft | 2 kts | 145° |
| 2026-04-22 09:21 | 2.73921 | 101.68704 | 49 ft | 0 kts | 145° |